sensor_id;sensor_type;location;lat;lon;timestamp;P1;durP1;ratioP1;P2;durP2;ratioP2
3549;SDS011;45572;48.804;8.330;2023-02-26T00:00:59;1.13;;;1.02;;
3549;SDS011;45572;48.804;8.330;2023-02-26T00:03:27;3.15;;;0.90;;
3549;SDS011;45572;48.804;8.330;2023-02-26T00:05:59;2.38;;;1.05;;
3549;SDS011;45572;48.804;8.330;2023-02-26T00:08:27;1.88;;;1.30;;
3549;SDS011;45572;48.804;8.330;2023-02-26T00:10:56;1.83;;;1.13;;
3549;SDS011;45572;48.804;8.330;2023-02-26T00:13:27;1.02;;;0.93;;
3549;SDS011;45572;48.804;8.330;2023-02-26T00:15:55;1.60;;;1.00;;
3549;SDS011;45572;48.804;8.330;2023-02-26T00:18:26;1.98;;;1.30;;
3549;SDS011;45572;48.804;8.330;2023-02-26T00:20:54;2.58;;;1.13;;
3549;SDS011;45572;48.804;8.330;2023-02-26T00:23:24;1.35;;;1.00;;
3549;SDS011;45572;48.804;8.330;2023-02-26T00:25:56;1.20;;;0.90;;
3549;SDS011;45572;48.804;8.330;2023-02-26T00:28:24;1.15;;;0.88;;
3549;SDS011;45572;48.804;8.330;2023-02-26T00:30:52;1.55;;;0.98;;
3549;SDS011;45572;48.804;8.330;2023-02-26T00:33:21;1.20;;;0.90;;
3549;SDS011;45572;48.804;8.330;2023-02-26T00:35:50;1.90;;;1.38;;
3549;SDS011;45572;48.804;8.330;2023-02-26T00:38:25;2.95;;;1.20;;
3549;SDS011;45572;48.804;8.330;2023-02-26T00:40:56;3.85;;;1.35;;
3549;SDS011;45572;48.804;8.330;2023-02-26T00:43:24;2.47;;;1.17;;
3549;SDS011;45572;48.804;8.330;2023-02-26T00:45:54;3.45;;;1.27;;
3549;SDS011;45572;48.804;8.330;2023-02-26T00:48:35;1.80;;;1.10;;
3549;SDS011;45572;48.804;8.330;2023-02-26T00:51:12;2.20;;;0.90;;
3549;SDS011;45572;48.804;8.330;2023-02-26T00:53:48;2.67;;;1.35;;
3549;SDS011;45572;48.804;8.330;2023-02-26T00:56:22;3.72;;;1.70;;
3549;SDS011;45572;48.804;8.330;2023-02-26T00:58:51;1.77;;;1.38;;
3549;SDS011;45572;48.804;8.330;2023-02-26T01:01:18;2.13;;;1.38;;
3549;SDS011;45572;48.804;8.330;2023-02-26T01:03:46;1.40;;;1.30;;
3549;SDS011;45572;48.804;8.330;2023-02-26T01:06:16;4.32;;;0.80;;
3549;SDS011;45572;48.804;8.330;2023-02-26T01:08:52;1.95;;;0.90;;
3549;SDS011;45572;48.804;8.330;2023-02-26T01:11:29;1.35;;;0.80;;
3549;SDS011;45572;48.804;8.330;2023-02-26T01:13:57;2.58;;;1.15;;
3549;SDS011;45572;48.804;8.330;2023-02-26T01:16:26;2.38;;;0.88;;
3549;SDS011;45572;48.804;8.330;2023-02-26T01:18:58;4.22;;;1.00;;
3549;SDS011;45572;48.804;8.330;2023-02-26T01:21:32;4.28;;;1.27;;
3549;SDS011;45572;48.804;8.330;2023-02-26T01:24:06;2.95;;;1.23;;
3549;SDS011;45572;48.804;8.330;2023-02-26T01:26:37;5.68;;;1.35;;
3549;SDS011;45572;48.804;8.330;2023-02-26T01:29:05;2.20;;;1.10;;
3549;SDS011;45572;48.804;8.330;2023-02-26T01:31:36;1.83;;;1.10;;
3549;SDS011;45572;48.804;8.330;2023-02-26T01:34:08;7.65;;;1.10;;
3549;SDS011;45572;48.804;8.330;2023-02-26T01:36:42;2.55;;;1.20;;
3549;SDS011;45572;48.804;8.330;2023-02-26T01:39:17;1.42;;;1.10;;
3549;SDS011;45572;48.804;8.330;2023-02-26T01:41:52;2.50;;;0.98;;
3549;SDS011;45572;48.804;8.330;2023-02-26T01:44:25;1.30;;;1.10;;
3549;SDS011;45572;48.804;8.330;2023-02-26T01:47:01;5.15;;;1.65;;
3549;SDS011;45572;48.804;8.330;2023-02-26T01:49:32;1.50;;;1.00;;
3549;SDS011;45572;48.804;8.330;2023-02-26T01:52:01;1.33;;;0.90;;
3549;SDS011;45572;48.804;8.330;2023-02-26T01:54:35;2.08;;;0.98;;
3549;SDS011;45572;48.804;8.330;2023-02-26T01:57:05;1.25;;;0.80;;
3549;SDS011;45572;48.804;8.330;2023-02-26T01:59:37;1.50;;;0.90;;
3549;SDS011;45572;48.804;8.330;2023-02-26T02:02:08;5.50;;;1.42;;
3549;SDS011;45572;48.804;8.330;2023-02-26T02:04:37;3.92;;;1.70;;
3549;SDS011;45572;48.804;8.330;2023-02-26T02:07:09;2.28;;;1.42;;
3549;SDS011;45572;48.804;8.330;2023-02-26T02:09:39;2.97;;;1.25;;
3549;SDS011;45572;48.804;8.330;2023-02-26T02:12:12;5.28;;;1.33;;
3549;SDS011;45572;48.804;8.330;2023-02-26T02:14:52;4.78;;;1.48;;
3549;SDS011;45572;48.804;8.330;2023-02-26T02:17:31;1.52;;;1.10;;
3549;SDS011;45572;48.804;8.330;2023-02-26T02:20:12;1.83;;;1.25;;
3549;SDS011;45572;48.804;8.330;2023-02-26T02:22:56;2.00;;;1.50;;
3549;SDS011;45572;48.804;8.330;2023-02-26T02:25:42;5.25;;;1.33;;
3549;SDS011;45572;48.804;8.330;2023-02-26T02:28:30;1.20;;;0.95;;
3549;SDS011;45572;48.804;8.330;2023-02-26T02:31:09;1.70;;;1.05;;
3549;SDS011;45572;48.804;8.330;2023-02-26T02:33:43;8.18;;;1.70;;
3549;SDS011;45572;48.804;8.330;2023-02-26T02:36:16;2.97;;;1.55;;
3549;SDS011;45572;48.804;8.330;2023-02-26T02:38:50;2.20;;;1.67;;
3549;SDS011;45572;48.804;8.330;2023-02-26T02:41:23;5.75;;;1.25;;
3549;SDS011;45572;48.804;8.330;2023-02-26T02:43:59;4.63;;;1.80;;
3549;SDS011;45572;48.804;8.330;2023-02-26T02:46:31;2.65;;;1.50;;
3549;SDS011;45572;48.804;8.330;2023-02-26T02:49:03;1.98;;;1.20;;
3549;SDS011;45572;48.804;8.330;2023-02-26T02:51:35;1.85;;;1.70;;
3549;SDS011;45572;48.804;8.330;2023-02-26T02:54:07;2.20;;;1.73;;
3549;SDS011;45572;48.804;8.330;2023-02-26T02:56:40;2.67;;;1.52;;
3549;SDS011;45572;48.804;8.330;2023-02-26T02:59:13;2.47;;;1.60;;
3549;SDS011;45572;48.804;8.330;2023-02-26T03:01:45;8.07;;;1.42;;
3549;SDS011;45572;48.804;8.330;2023-02-26T03:04:17;2.90;;;1.60;;
3549;SDS011;45572;48.804;8.330;2023-02-26T03:06:45;2.95;;;1.50;;
3549;SDS011;45572;48.804;8.330;2023-02-26T03:09:17;1.67;;;0.90;;
3549;SDS011;45572;48.804;8.330;2023-02-26T03:11:45;1.67;;;1.40;;
3549;SDS011;45572;48.804;8.330;2023-02-26T03:14:13;4.30;;;1.90;;
3549;SDS011;45572;48.804;8.330;2023-02-26T03:16:48;3.42;;;1.88;;
3549;SDS011;45572;48.804;8.330;2023-02-26T03:19:30;3.25;;;1.20;;
3549;SDS011;45572;48.804;8.330;2023-02-26T03:22:08;2.70;;;1.50;;
3549;SDS011;45572;48.804;8.330;2023-02-26T03:24:50;4.32;;;1.20;;
3549;SDS011;45572;48.804;8.330;2023-02-26T03:27:23;2.60;;;1.50;;
3549;SDS011;45572;48.804;8.330;2023-02-26T03:29:59;3.67;;;2.00;;
3549;SDS011;45572;48.804;8.330;2023-02-26T03:32:40;3.15;;;1.42;;
3549;SDS011;45572;48.804;8.330;2023-02-26T03:35:19;4.43;;;1.30;;
3549;SDS011;45572;48.804;8.330;2023-02-26T03:37:53;1.85;;;1.15;;
3549;SDS011;45572;48.804;8.330;2023-02-26T03:40:24;2.58;;;1.30;;
3549;SDS011;45572;48.804;8.330;2023-02-26T03:42:59;3.30;;;1.42;;
3549;SDS011;45572;48.804;8.330;2023-02-26T03:45:32;2.08;;;1.35;;
3549;SDS011;45572;48.804;8.330;2023-02-26T03:48:03;2.10;;;1.20;;
3549;SDS011;45572;48.804;8.330;2023-02-26T03:50:35;2.42;;;1.70;;
3549;SDS011;45572;48.804;8.330;2023-02-26T03:53:17;2.10;;;1.58;;
3549;SDS011;45572;48.804;8.330;2023-02-26T03:55:54;2.80;;;1.17;;
3549;SDS011;45572;48.804;8.330;2023-02-26T03:58:47;1.35;;;1.17;;
3549;SDS011;45572;48.804;8.330;2023-02-26T04:01:37;4.50;;;1.15;;
3549;SDS011;45572;48.804;8.330;2023-02-26T04:04:12;2.65;;;1.40;;
3549;SDS011;45572;48.804;8.330;2023-02-26T04:06:42;3.20;;;1.23;;
3549;SDS011;45572;48.804;8.330;2023-02-26T04:09:11;1.40;;;1.30;;
3549;SDS011;45572;48.804;8.330;2023-02-26T04:11:41;4.22;;;1.75;;
3549;SDS011;45572;48.804;8.330;2023-02-26T04:14:11;4.70;;;3.55;;
3549;SDS011;45572;48.804;8.330;2023-02-26T04:16:40;2.20;;;1.40;;
3549;SDS011;45572;48.804;8.330;2023-02-26T04:19:11;1.75;;;1.30;;
3549;SDS011;45572;48.804;8.330;2023-02-26T04:21:40;2.63;;;1.27;;
3549;SDS011;45572;48.804;8.330;2023-02-26T04:24:09;15.52;;;1.63;;
3549;SDS011;45572;48.804;8.330;2023-02-26T04:26:37;3.08;;;1.50;;
3549;SDS011;45572;48.804;8.330;2023-02-26T04:29:06;1.27;;;1.15;;
3549;SDS011;45572;48.804;8.330;2023-02-26T04:31:34;1.45;;;1.35;;
3549;SDS011;45572;48.804;8.330;2023-02-26T04:34:02;2.28;;;1.33;;
3549;SDS011;45572;48.804;8.330;2023-02-26T04:36:31;5.72;;;1.70;;
3549;SDS011;45572;48.804;8.330;2023-02-26T04:38:59;4.60;;;1.98;;
3549;SDS011;45572;48.804;8.330;2023-02-26T04:41:28;4.38;;;1.75;;
3549;SDS011;45572;48.804;8.330;2023-02-26T04:43:56;2.45;;;1.73;;
3549;SDS011;45572;48.804;8.330;2023-02-26T04:46:27;3.53;;;1.80;;
3549;SDS011;45572;48.804;8.330;2023-02-26T04:49:05;2.22;;;1.80;;
3549;SDS011;45572;48.804;8.330;2023-02-26T04:51:35;2.28;;;1.58;;
3549;SDS011;45572;48.804;8.330;2023-02-26T04:54:06;3.75;;;1.73;;
3549;SDS011;45572;48.804;8.330;2023-02-26T04:56:34;2.40;;;2.17;;
3549;SDS011;45572;48.804;8.330;2023-02-26T04:59:02;3.03;;;1.90;;
3549;SDS011;45572;48.804;8.330;2023-02-26T05:01:30;2.85;;;1.77;;
3549;SDS011;45572;48.804;8.330;2023-02-26T05:03:58;3.40;;;1.95;;
3549;SDS011;45572;48.804;8.330;2023-02-26T05:06:28;1.75;;;1.40;;
3549;SDS011;45572;48.804;8.330;2023-02-26T05:08:57;2.67;;;1.27;;
3549;SDS011;45572;48.804;8.330;2023-02-26T05:11:25;5.60;;;1.73;;
3549;SDS011;45572;48.804;8.330;2023-02-26T05:13:53;4.47;;;1.60;;
3549;SDS011;45572;48.804;8.330;2023-02-26T05:16:20;4.18;;;1.70;;
3549;SDS011;45572;48.804;8.330;2023-02-26T05:18:49;3.78;;;2.03;;
3549;SDS011;45572;48.804;8.330;2023-02-26T05:21:17;1.98;;;1.58;;
3549;SDS011;45572;48.804;8.330;2023-02-26T05:23:46;3.05;;;1.95;;
3549;SDS011;45572;48.804;8.330;2023-02-26T05:26:17;2.88;;;1.60;;
3549;SDS011;45572;48.804;8.330;2023-02-26T05:28:44;7.00;;;2.20;;
3549;SDS011;45572;48.804;8.330;2023-02-26T05:31:12;6.95;;;1.70;;
3549;SDS011;45572;48.804;8.330;2023-02-26T05:33:40;5.32;;;1.92;;
3549;SDS011;45572;48.804;8.330;2023-02-26T05:36:08;4.22;;;2.40;;
3549;SDS011;45572;48.804;8.330;2023-02-26T05:38:37;3.40;;;2.25;;
3549;SDS011;45572;48.804;8.330;2023-02-26T05:41:05;3.80;;;1.55;;
3549;SDS011;45572;48.804;8.330;2023-02-26T05:43:34;4.50;;;1.75;;
3549;SDS011;45572;48.804;8.330;2023-02-26T05:46:02;2.85;;;1.77;;
3549;SDS011;45572;48.804;8.330;2023-02-26T05:48:30;5.72;;;2.67;;
3549;SDS011;45572;48.804;8.330;2023-02-26T05:50:58;4.78;;;1.90;;
3549;SDS011;45572;48.804;8.330;2023-02-26T05:53:25;2.08;;;1.70;;
3549;SDS011;45572;48.804;8.330;2023-02-26T05:55:53;3.97;;;2.13;;
3549;SDS011;45572;48.804;8.330;2023-02-26T05:58:21;5.00;;;2.15;;
3549;SDS011;45572;48.804;8.330;2023-02-26T06:00:50;9.30;;;2.83;;
3549;SDS011;45572;48.804;8.330;2023-02-26T06:03:18;5.28;;;2.13;;
3549;SDS011;45572;48.804;8.330;2023-02-26T06:05:47;2.28;;;2.05;;
3549;SDS011;45572;48.804;8.330;2023-02-26T06:08:15;3.30;;;2.08;;
3549;SDS011;45572;48.804;8.330;2023-02-26T06:10:42;4.65;;;2.15;;
3549;SDS011;45572;48.804;8.330;2023-02-26T06:13:10;2.47;;;1.55;;
3549;SDS011;45572;48.804;8.330;2023-02-26T06:15:38;1.92;;;1.50;;
3549;SDS011;45572;48.804;8.330;2023-02-26T06:18:07;2.22;;;1.55;;
3549;SDS011;45572;48.804;8.330;2023-02-26T06:20:35;3.75;;;2.35;;
3549;SDS011;45572;48.804;8.330;2023-02-26T06:23:03;4.82;;;1.90;;
3549;SDS011;45572;48.804;8.330;2023-02-26T06:25:30;3.08;;;1.83;;
3549;SDS011;45572;48.804;8.330;2023-02-26T06:27:58;8.40;;;2.90;;
3549;SDS011;45572;48.804;8.330;2023-02-26T06:30:26;5.90;;;2.05;;
3549;SDS011;45572;48.804;8.330;2023-02-26T06:32:54;19.52;;;3.10;;
3549;SDS011;45572;48.804;8.330;2023-02-26T06:35:23;4.82;;;2.35;;
3549;SDS011;45572;48.804;8.330;2023-02-26T06:37:51;2.78;;;1.65;;
3549;SDS011;45572;48.804;8.330;2023-02-26T06:40:18;3.85;;;2.70;;
3549;SDS011;45572;48.804;8.330;2023-02-26T06:42:46;5.05;;;3.00;;
3549;SDS011;45572;48.804;8.330;2023-02-26T06:45:14;9.70;;;2.25;;
3549;SDS011;45572;48.804;8.330;2023-02-26T06:47:42;3.80;;;1.98;;
3549;SDS011;45572;48.804;8.330;2023-02-26T06:50:10;3.42;;;1.83;;
3549;SDS011;45572;48.804;8.330;2023-02-26T06:52:39;2.10;;;1.65;;
3549;SDS011;45572;48.804;8.330;2023-02-26T06:55:07;2.85;;;2.45;;
3549;SDS011;45572;48.804;8.330;2023-02-26T06:57:36;6.03;;;2.83;;
3549;SDS011;45572;48.804;8.330;2023-02-26T07:00:04;3.53;;;2.38;;
3549;SDS011;45572;48.804;8.330;2023-02-26T07:02:37;2.72;;;2.00;;
3549;SDS011;45572;48.804;8.330;2023-02-26T07:05:05;4.05;;;2.50;;
3549;SDS011;45572;48.804;8.330;2023-02-26T07:07:33;5.80;;;2.90;;
3549;SDS011;45572;48.804;8.330;2023-02-26T07:10:02;4.13;;;1.38;;
3549;SDS011;45572;48.804;8.330;2023-02-26T07:12:31;7.50;;;2.13;;
3549;SDS011;45572;48.804;8.330;2023-02-26T07:14:58;5.97;;;1.70;;
3549;SDS011;45572;48.804;8.330;2023-02-26T07:17:27;4.07;;;1.98;;
3549;SDS011;45572;48.804;8.330;2023-02-26T07:19:55;6.82;;;2.03;;
3549;SDS011;45572;48.804;8.330;2023-02-26T07:22:22;5.43;;;1.92;;
3549;SDS011;45572;48.804;8.330;2023-02-26T07:24:50;11.07;;;3.00;;
3549;SDS011;45572;48.804;8.330;2023-02-26T07:27:19;2.30;;;1.80;;
3549;SDS011;45572;48.804;8.330;2023-02-26T07:29:47;8.18;;;2.05;;
3549;SDS011;45572;48.804;8.330;2023-02-26T07:32:14;5.35;;;2.05;;
3549;SDS011;45572;48.804;8.330;2023-02-26T07:34:42;1.70;;;1.60;;
3549;SDS011;45572;48.804;8.330;2023-02-26T07:37:10;4.38;;;2.03;;
3549;SDS011;45572;48.804;8.330;2023-02-26T07:39:38;4.95;;;2.08;;
3549;SDS011;45572;48.804;8.330;2023-02-26T07:42:06;2.55;;;1.70;;
3549;SDS011;45572;48.804;8.330;2023-02-26T07:44:35;5.07;;;1.80;;
3549;SDS011;45572;48.804;8.330;2023-02-26T07:47:03;7.82;;;1.88;;
3549;SDS011;45572;48.804;8.330;2023-02-26T07:49:31;7.22;;;1.85;;
3549;SDS011;45572;48.804;8.330;2023-02-26T07:51:59;3.00;;;1.75;;
3549;SDS011;45572;48.804;8.330;2023-02-26T07:54:28;2.10;;;1.35;;
3549;SDS011;45572;48.804;8.330;2023-02-26T07:56:56;4.18;;;2.15;;
3549;SDS011;45572;48.804;8.330;2023-02-26T07:59:23;9.55;;;2.55;;
3549;SDS011;45572;48.804;8.330;2023-02-26T08:01:53;3.40;;;1.95;;
3549;SDS011;45572;48.804;8.330;2023-02-26T08:04:21;5.32;;;1.60;;
3549;SDS011;45572;48.804;8.330;2023-02-26T08:06:49;5.47;;;1.50;;
3549;SDS011;45572;48.804;8.330;2023-02-26T08:09:19;6.80;;;2.95;;
3549;SDS011;45572;48.804;8.330;2023-02-26T08:11:47;4.78;;;2.65;;
3549;SDS011;45572;48.804;8.330;2023-02-26T08:14:15;4.63;;;2.58;;
3549;SDS011;45572;48.804;8.330;2023-02-26T08:16:43;4.93;;;1.88;;
3549;SDS011;45572;48.804;8.330;2023-02-26T08:19:12;7.40;;;4.47;;
3549;SDS011;45572;48.804;8.330;2023-02-26T08:21:40;4.13;;;2.10;;
3549;SDS011;45572;48.804;8.330;2023-02-26T08:24:09;8.20;;;2.33;;
3549;SDS011;45572;48.804;8.330;2023-02-26T08:26:37;3.42;;;2.17;;
3549;SDS011;45572;48.804;8.330;2023-02-26T08:29:05;2.95;;;2.25;;
3549;SDS011;45572;48.804;8.330;2023-02-26T08:31:34;2.28;;;1.20;;
3549;SDS011;45572;48.804;8.330;2023-02-26T08:34:02;3.15;;;1.77;;
3549;SDS011;45572;48.804;8.330;2023-02-26T08:36:31;4.15;;;1.95;;
3549;SDS011;45572;48.804;8.330;2023-02-26T08:38:59;2.85;;;1.65;;
3549;SDS011;45572;48.804;8.330;2023-02-26T08:41:27;3.47;;;2.20;;
3549;SDS011;45572;48.804;8.330;2023-02-26T08:43:57;5.78;;;2.90;;
3549;SDS011;45572;48.804;8.330;2023-02-26T08:46:27;1.88;;;1.60;;
3549;SDS011;45572;48.804;8.330;2023-02-26T08:48:55;7.35;;;2.33;;
3549;SDS011;45572;48.804;8.330;2023-02-26T08:51:23;2.75;;;1.63;;
3549;SDS011;45572;48.804;8.330;2023-02-26T08:53:53;2.47;;;1.85;;
3549;SDS011;45572;48.804;8.330;2023-02-26T08:56:21;7.75;;;4.18;;
3549;SDS011;45572;48.804;8.330;2023-02-26T08:58:53;5.53;;;3.65;;
3549;SDS011;45572;48.804;8.330;2023-02-26T09:01:20;3.38;;;1.80;;
3549;SDS011;45572;48.804;8.330;2023-02-26T09:03:49;4.28;;;1.80;;
3549;SDS011;45572;48.804;8.330;2023-02-26T09:06:16;4.57;;;1.38;;
3549;SDS011;45572;48.804;8.330;2023-02-26T09:08:44;3.80;;;1.33;;
3549;SDS011;45572;48.804;8.330;2023-02-26T09:11:13;8.30;;;4.40;;
3549;SDS011;45572;48.804;8.330;2023-02-26T09:13:41;3.45;;;2.83;;
3549;SDS011;45572;48.804;8.330;2023-02-26T09:16:09;4.85;;;2.67;;
3549;SDS011;45572;48.804;8.330;2023-02-26T09:18:40;2.65;;;1.77;;
3549;SDS011;45572;48.804;8.330;2023-02-26T09:21:08;7.03;;;3.38;;
3549;SDS011;45572;48.804;8.330;2023-02-26T09:23:36;3.58;;;2.38;;
3549;SDS011;45572;48.804;8.330;2023-02-26T09:26:04;3.88;;;1.77;;
3549;SDS011;45572;48.804;8.330;2023-02-26T09:28:35;2.90;;;1.50;;
3549;SDS011;45572;48.804;8.330;2023-02-26T09:31:03;2.88;;;1.33;;
3549;SDS011;45572;48.804;8.330;2023-02-26T09:33:32;3.80;;;1.63;;
3549;SDS011;45572;48.804;8.330;2023-02-26T09:36:01;5.20;;;1.90;;
3549;SDS011;45572;48.804;8.330;2023-02-26T09:38:29;8.20;;;2.70;;
3549;SDS011;45572;48.804;8.330;2023-02-26T09:40:57;4.13;;;3.17;;
3549;SDS011;45572;48.804;8.330;2023-02-26T09:43:38;4.80;;;1.45;;
3549;SDS011;45572;48.804;8.330;2023-02-26T09:46:27;3.88;;;1.80;;
3549;SDS011;45572;48.804;8.330;2023-02-26T09:49:12;4.45;;;2.40;;
3549;SDS011;45572;48.804;8.330;2023-02-26T09:51:45;4.00;;;2.20;;
3549;SDS011;45572;48.804;8.330;2023-02-26T09:54:16;5.93;;;2.50;;
3549;SDS011;45572;48.804;8.330;2023-02-26T09:56:47;10.43;;;3.33;;
3549;SDS011;45572;48.804;8.330;2023-02-26T09:59:18;5.93;;;2.70;;
3549;SDS011;45572;48.804;8.330;2023-02-26T10:01:47;4.15;;;2.45;;
3549;SDS011;45572;48.804;8.330;2023-02-26T10:04:24;6.95;;;3.78;;
3549;SDS011;45572;48.804;8.330;2023-02-26T10:07:12;4.75;;;3.22;;
3549;SDS011;45572;48.804;8.330;2023-02-26T10:09:49;11.00;;;4.60;;
3549;SDS011;45572;48.804;8.330;2023-02-26T10:12:28;10.60;;;4.88;;
3549;SDS011;45572;48.804;8.330;2023-02-26T10:15:02;5.78;;;3.80;;
3549;SDS011;45572;48.804;8.330;2023-02-26T10:17:39;4.25;;;1.52;;
3549;SDS011;45572;48.804;8.330;2023-02-26T10:20:14;6.68;;;3.17;;
3549;SDS011;45572;48.804;8.330;2023-02-26T10:22:50;4.82;;;3.45;;
3549;SDS011;45572;48.804;8.330;2023-02-26T10:25:25;8.75;;;3.03;;
3549;SDS011;45572;48.804;8.330;2023-02-26T10:28:00;3.67;;;1.80;;
3549;SDS011;45572;48.804;8.330;2023-02-26T10:30:36;4.40;;;1.50;;
3549;SDS011;45572;48.804;8.330;2023-02-26T10:33:12;2.90;;;2.42;;
3549;SDS011;45572;48.804;8.330;2023-02-26T10:35:49;7.40;;;3.58;;
3549;SDS011;45572;48.804;8.330;2023-02-26T10:38:21;10.73;;;2.08;;
3549;SDS011;45572;48.804;8.330;2023-02-26T10:40:52;4.65;;;1.80;;
3549;SDS011;45572;48.804;8.330;2023-02-26T10:43:26;5.63;;;2.30;;
3549;SDS011;45572;48.804;8.330;2023-02-26T10:46:03;6.30;;;3.58;;
3549;SDS011;45572;48.804;8.330;2023-02-26T10:48:45;5.75;;;1.95;;
3549;SDS011;45572;48.804;8.330;2023-02-26T10:51:22;2.97;;;2.05;;
3549;SDS011;45572;48.804;8.330;2023-02-26T10:53:55;2.90;;;1.77;;
3549;SDS011;45572;48.804;8.330;2023-02-26T10:56:26;4.25;;;2.00;;
3549;SDS011;45572;48.804;8.330;2023-02-26T10:58:58;2.67;;;1.90;;
3549;SDS011;45572;48.804;8.330;2023-02-26T11:01:28;2.85;;;2.40;;
3549;SDS011;45572;48.804;8.330;2023-02-26T11:04:02;8.48;;;2.40;;
3549;SDS011;45572;48.804;8.330;2023-02-26T11:06:36;5.63;;;2.00;;
3549;SDS011;45572;48.804;8.330;2023-02-26T11:09:13;1.92;;;1.30;;
3549;SDS011;45572;48.804;8.330;2023-02-26T11:11:47;2.20;;;1.10;;
3549;SDS011;45572;48.804;8.330;2023-02-26T11:14:18;3.05;;;1.27;;
3549;SDS011;45572;48.804;8.330;2023-02-26T11:16:51;1.88;;;0.93;;
3549;SDS011;45572;48.804;8.330;2023-02-26T11:19:24;1.75;;;1.15;;
3549;SDS011;45572;48.804;8.330;2023-02-26T11:21:54;3.00;;;1.23;;
3549;SDS011;45572;48.804;8.330;2023-02-26T11:24:28;1.60;;;1.50;;
3549;SDS011;45572;48.804;8.330;2023-02-26T11:26:58;1.48;;;0.88;;
3549;SDS011;45572;48.804;8.330;2023-02-26T11:29:32;2.65;;;1.20;;
3549;SDS011;45572;48.804;8.330;2023-02-26T11:32:05;1.67;;;0.90;;
3549;SDS011;45572;48.804;8.330;2023-02-26T11:34:44;4.55;;;1.77;;
3549;SDS011;45572;48.804;8.330;2023-02-26T11:37:14;1.70;;;1.20;;
3549;SDS011;45572;48.804;8.330;2023-02-26T11:39:48;4.97;;;2.83;;
3549;SDS011;45572;48.804;8.330;2023-02-26T11:42:21;6.72;;;1.92;;
3549;SDS011;45572;48.804;8.330;2023-02-26T11:44:50;2.33;;;1.30;;
3549;SDS011;45572;48.804;8.330;2023-02-26T11:47:20;2.67;;;0.93;;
3549;SDS011;45572;48.804;8.330;2023-02-26T11:49:51;2.65;;;1.38;;
3549;SDS011;45572;48.804;8.330;2023-02-26T11:52:27;4.03;;;1.17;;
3549;SDS011;45572;48.804;8.330;2023-02-26T11:54:59;4.53;;;0.95;;
3549;SDS011;45572;48.804;8.330;2023-02-26T11:57:30;2.05;;;1.05;;
3549;SDS011;45572;48.804;8.330;2023-02-26T12:00:00;2.95;;;1.10;;
3549;SDS011;45572;48.804;8.330;2023-02-26T12:02:46;1.48;;;0.70;;
3549;SDS011;45572;48.804;8.330;2023-02-26T12:05:14;1.20;;;0.80;;
3549;SDS011;45572;48.804;8.330;2023-02-26T12:07:45;1.02;;;0.73;;
3549;SDS011;45572;48.804;8.330;2023-02-26T12:10:14;1.23;;;1.00;;
3549;SDS011;45572;48.804;8.330;2023-02-26T12:12:48;1.92;;;1.20;;
3549;SDS011;45572;48.804;8.330;2023-02-26T12:15:26;2.28;;;1.02;;
3549;SDS011;45572;48.804;8.330;2023-02-26T12:18:12;1.55;;;1.45;;
3549;SDS011;45572;48.804;8.330;2023-02-26T12:20:51;1.50;;;0.85;;
3549;SDS011;45572;48.804;8.330;2023-02-26T12:23:29;1.73;;;0.90;;
3549;SDS011;45572;48.804;8.330;2023-02-26T12:26:13;1.10;;;0.75;;
3549;SDS011;45572;48.804;8.330;2023-02-26T12:28:57;4.00;;;1.20;;
3549;SDS011;45572;48.804;8.330;2023-02-26T12:31:40;1.60;;;1.10;;
3549;SDS011;45572;48.804;8.330;2023-02-26T12:34:33;1.77;;;0.80;;
3549;SDS011;45572;48.804;8.330;2023-02-26T12:37:23;1.23;;;0.70;;
3549;SDS011;45572;48.804;8.330;2023-02-26T12:40:02;1.35;;;1.00;;
3549;SDS011;45572;48.804;8.330;2023-02-26T12:42:39;4.35;;;1.30;;
3549;SDS011;45572;48.804;8.330;2023-02-26T12:45:19;3.08;;;1.17;;
3549;SDS011;45572;48.804;8.330;2023-02-26T12:48:01;3.17;;;1.23;;
3549;SDS011;45572;48.804;8.330;2023-02-26T12:50:43;1.67;;;1.25;;
3549;SDS011;45572;48.804;8.330;2023-02-26T12:56:19;1.20;;;0.95;;
3549;SDS011;45572;48.804;8.330;2023-02-26T12:59:05;0.73;;;0.60;;
3549;SDS011;45572;48.804;8.330;2023-02-26T13:01:45;1.25;;;0.95;;
3549;SDS011;45572;48.804;8.330;2023-02-26T13:04:37;2.30;;;1.00;;
3549;SDS011;45572;48.804;8.330;2023-02-26T13:07:26;1.40;;;1.10;;
3549;SDS011;45572;48.804;8.330;2023-02-26T13:10:09;1.20;;;0.90;;
3549;SDS011;45572;48.804;8.330;2023-02-26T13:12:46;3.55;;;1.50;;
3549;SDS011;45572;48.804;8.330;2023-02-26T13:15:30;2.13;;;1.80;;
3549;SDS011;45572;48.804;8.330;2023-02-26T13:18:08;3.75;;;2.45;;
3549;SDS011;45572;48.804;8.330;2023-02-26T13:20:45;2.10;;;0.90;;
3549;SDS011;45572;48.804;8.330;2023-02-26T13:23:22;3.40;;;0.90;;
3549;SDS011;45572;48.804;8.330;2023-02-26T13:25:54;2.25;;;1.45;;
3549;SDS011;45572;48.804;8.330;2023-02-26T13:28:30;1.80;;;1.00;;
3549;SDS011;45572;48.804;8.330;2023-02-26T13:31:06;1.40;;;1.00;;
3549;SDS011;45572;48.804;8.330;2023-02-26T13:33:36;3.00;;;1.05;;
3549;SDS011;45572;48.804;8.330;2023-02-26T13:36:06;1.50;;;0.70;;
3549;SDS011;45572;48.804;8.330;2023-02-26T13:38:39;1.05;;;0.85;;
3549;SDS011;45572;48.804;8.330;2023-02-26T13:41:15;2.58;;;1.10;;
3549;SDS011;45572;48.804;8.330;2023-02-26T13:43:51;1.52;;;0.80;;
3549;SDS011;45572;48.804;8.330;2023-02-26T13:46:34;1.27;;;0.80;;
3549;SDS011;45572;48.804;8.330;2023-02-26T13:49:10;2.25;;;1.10;;
3549;SDS011;45572;48.804;8.330;2023-02-26T13:51:43;1.20;;;1.00;;
3549;SDS011;45572;48.804;8.330;2023-02-26T13:57:08;1.40;;;0.60;;
3549;SDS011;45572;48.804;8.330;2023-02-26T13:59:51;1.20;;;0.80;;
3549;SDS011;45572;48.804;8.330;2023-02-26T14:08:08;2.15;;;0.77;;
3549;SDS011;45572;48.804;8.330;2023-02-26T14:10:46;1.77;;;0.75;;
3549;SDS011;45572;48.804;8.330;2023-02-26T14:13:22;1.30;;;0.60;;
3549;SDS011;45572;48.804;8.330;2023-02-26T14:15:58;0.80;;;0.70;;
3549;SDS011;45572;48.804;8.330;2023-02-26T14:18:31;1.20;;;0.68;;
3549;SDS011;45572;48.804;8.330;2023-02-26T14:24:00;2.08;;;0.70;;
3549;SDS011;45572;48.804;8.330;2023-02-26T14:26:32;0.80;;;0.60;;
3549;SDS011;45572;48.804;8.330;2023-02-26T14:29:13;1.02;;;0.70;;
3549;SDS011;45572;48.804;8.330;2023-02-26T14:31:50;1.23;;;0.68;;
3549;SDS011;45572;48.804;8.330;2023-02-26T14:34:33;1.10;;;0.60;;
3549;SDS011;45572;48.804;8.330;2023-02-26T14:37:03;0.90;;;0.60;;
3549;SDS011;45572;48.804;8.330;2023-02-26T14:39:35;1.00;;;0.70;;
3549;SDS011;45572;48.804;8.330;2023-02-26T14:42:08;1.08;;;0.60;;
3549;SDS011;45572;48.804;8.330;2023-02-26T14:44:40;1.02;;;0.70;;
3549;SDS011;45572;48.804;8.330;2023-02-26T14:47:10;1.15;;;0.80;;
3549;SDS011;45572;48.804;8.330;2023-02-26T14:49:39;2.72;;;1.63;;
3549;SDS011;45572;48.804;8.330;2023-02-26T14:55:14;1.40;;;0.85;;
3549;SDS011;45572;48.804;8.330;2023-02-26T14:57:58;1.10;;;0.50;;
3549;SDS011;45572;48.804;8.330;2023-02-26T15:00:35;0.70;;;0.50;;
3549;SDS011;45572;48.804;8.330;2023-02-26T15:03:23;1.02;;;0.70;;
3549;SDS011;45572;48.804;8.330;2023-02-26T15:06:10;1.20;;;1.00;;
3549;SDS011;45572;48.804;8.330;2023-02-26T15:08:55;2.20;;;1.60;;
3549;SDS011;45572;48.804;8.330;2023-02-26T15:11:37;1.25;;;0.60;;
3549;SDS011;45572;48.804;8.330;2023-02-26T15:14:21;0.65;;;0.50;;
3549;SDS011;45572;48.804;8.330;2023-02-26T15:17:04;0.90;;;0.60;;
3549;SDS011;45572;48.804;8.330;2023-02-26T15:19:48;0.80;;;0.52;;
3549;SDS011;45572;48.804;8.330;2023-02-26T15:22:41;1.25;;;0.90;;
3549;SDS011;45572;48.804;8.330;2023-02-26T15:25:24;1.65;;;0.90;;
3549;SDS011;45572;48.804;8.330;2023-02-26T15:27:56;1.38;;;0.90;;
3549;SDS011;45572;48.804;8.330;2023-02-26T15:30:25;1.10;;;0.80;;
3549;SDS011;45572;48.804;8.330;2023-02-26T15:32:55;1.40;;;0.85;;
3549;SDS011;45572;48.804;8.330;2023-02-26T15:35:25;1.73;;;0.85;;
3549;SDS011;45572;48.804;8.330;2023-02-26T15:37:55;1.52;;;0.80;;
3549;SDS011;45572;48.804;8.330;2023-02-26T15:40:24;1.90;;;1.00;;
3549;SDS011;45572;48.804;8.330;2023-02-26T15:42:55;1.20;;;0.80;;
3549;SDS011;45572;48.804;8.330;2023-02-26T15:45:27;1.73;;;0.80;;
3549;SDS011;45572;48.804;8.330;2023-02-26T15:48:03;0.70;;;0.70;;
3549;SDS011;45572;48.804;8.330;2023-02-26T15:50:33;4.10;;;1.05;;